Time;durP1;ratioP1;P1;durP2;ratioP2;P2;SDS_P1;SDS_P2;PMS_P1;PMS_P2;Temp;Humidity;BMP_temperature;BMP_pressure;BME280_temperature;BME280_humidity;BME280_pressure;Samples;Min_cycle;Max_cycle;Signal;HPM_P1;HPM_P2
2022/06/07 00:00:10;;;;;;;;;;;24.70;35.30;;;;;;21258375;27;19948;-74
2022/06/07 00:10:12;;;;;;;;;;;24.70;35.70;;;;;;21257053;27;19923;-74
2022/06/07 00:20:13;;;;;;;;;;;24.60;35.90;;;;;;21257374;27;20008;-74
2022/06/07 00:30:15;;;;;;;;;;;24.60;35.90;;;;;;21256578;27;19924;-74
2022/06/07 00:40:16;;;;;;;;;;;24.60;36.20;;;;;;21237396;27;19928;-75
2022/06/07 00:50:34;;;;;;;;;;;24.60;36.50;;;;;;21255824;27;19923;-74
2022/06/07 01:00:35;;;;;;;;;;;24.40;36.90;;;;;;21254105;27;19983;-73
2022/06/07 01:10:46;;;;;;;;;;;24.40;37.50;;;;;;21253634;27;19928;-76
2022/06/07 01:21:08;;;;;;;;;;;24.30;37.70;;;;;;21251498;27;19953;-75
2022/06/07 01:31:10;;;;;;;;;;;24.10;38.30;;;;;;21251467;27;19929;-74
2022/06/07 01:51:34;;;;;;;;;;;23.80;39.30;;;;;;21251145;27;20096;-75
2022/06/07 02:01:36;;;;;;;;;;;23.60;40.00;;;;;;21250076;27;20018;-75
2022/06/07 02:11:40;;;;;;;;;;;;;;;;;;21248828;27;19931;-74
2022/06/07 02:21:41;;;;;;;;;;;23.30;40.50;;;;;;21248315;27;19970;-72
2022/06/07 02:31:46;;;;;;;;;;;23.20;40.80;;;;;;21258725;27;20427;-73
2022/06/07 02:41:50;;;;;;;;;;;23.10;41.20;;;;;;21276295;27;19930;-74
2022/06/07 02:51:58;;;;;;;;;;;23.00;41.70;;;;;;21275178;27;20006;-74
2022/06/07 03:02:09;;;;;;;;;;;22.80;42.10;;;;;;21276314;27;19930;-73
2022/06/07 03:12:32;;;;;;;;;;;22.60;42.80;;;;;;21274883;27;20019;-74
2022/06/07 03:22:53;;;;;;;;;;;22.30;43.10;;;;;;21277217;27;20287;-75
2022/06/07 03:33:04;;;;;;;;;;;22.00;44.20;;;;;;21290937;27;19930;-74
2022/06/07 03:43:10;;;;;;;;;;;21.80;44.70;;;;;;21270273;27;19930;-74
2022/06/07 03:53:15;;;;;;;;;;;21.80;44.70;;;;;;21264589;27;19976;-76
2022/06/07 04:03:18;;;;;;;;;;;21.70;45.10;;;;;;21244055;27;19923;-76
2022/06/07 04:13:23;;;;;;;;;;;21.50;45.20;;;;;;21262649;27;19968;-74
2022/06/07 04:23:26;;;;;;;;;;;21.40;45.10;;;;;;21259185;27;19930;-74
2022/06/07 04:33:29;;;;;;;;;;;21.30;45.20;;;;;;21274809;27;19927;-76
2022/06/07 04:43:32;;;;;;;;;;;21.30;45.10;;;;;;21257041;27;19993;-75
2022/06/07 04:53:36;;;;;;;;;;;21.20;45.40;;;;;;21238809;27;19962;-74
2022/06/07 05:03:38;;;;;;;;;;;21.30;45.90;;;;;;21255173;27;19923;-74
2022/06/07 05:13:40;;;;;;;;;;;21.20;46.10;;;;;;21254567;27;19935;-76
2022/06/07 05:23:43;;;;;;;;;;;21.20;47.10;;;;;;21251801;27;19924;-76
2022/06/07 05:33:45;;;;;;;;;;;21.20;47.50;;;;;;21252534;27;19966;-74
2022/06/07 05:43:47;;;;;;;;;;;20.90;47.10;;;;;;21253020;27;20023;-76
2022/06/07 05:53:53;;;;;;;;;;;21.00;48.60;;;;;;21253621;27;20389;-76
2022/06/07 06:03:55;;;;;;;;;;;21.00;48.60;;;;;;21249550;27;19923;-78
2022/06/07 06:13:57;;;;;;;;;;;21.20;48.00;;;;;;21265563;27;20368;-76
2022/06/07 06:23:59;;;;;;;;;;;21.30;47.50;;;;;;21249633;27;19930;-76
2022/06/07 06:34:02;;;;;;;;;;;21.20;47.30;;;;;;21248817;28;19951;-76
2022/06/07 06:44:03;;;;;;;;;;;21.40;47.50;;;;;;21248739;28;19995;-75
2022/06/07 06:54:05;;;;;;;;;;;21.70;47.20;;;;;;21248979;28;20027;-77
2022/06/07 07:04:09;;;;;;;;;;;23.30;44.80;;;;;;21248624;28;20365;-75
2022/06/07 07:14:11;;;;;;;;;;;24.20;42.40;;;;;;21247689;28;19985;-77
2022/06/07 07:24:13;;;;;;;;;;;;;;;;;;21261703;27;19931;-78
2022/06/07 07:34:15;;;;;;;;;;;26.20;39.90;;;;;;21261857;27;20272;-72
2022/06/07 07:44:18;;;;;;;;;;;26.10;39.30;;;;;;21262131;27;19927;-69
2022/06/07 07:54:21;;;;;;;;;;;26.60;38.60;;;;;;21267463;27;19923;-68
2022/06/07 08:04:22;;;;;;;;;;;27.10;37.80;;;;;;21261618;27;19924;-73
2022/06/07 08:14:24;;;;;;;;;;;27.60;37.20;;;;;;21258375;27;19928;-69
2022/06/07 08:24:26;;;;;;;;;;;28.00;36.50;;;;;;21257446;27;19929;-68
2022/06/07 08:44:52;;;;;;;;;;;28.10;36.30;;;;;;21254905;27;19931;-69
2022/06/07 08:54:55;;;;;;;;;;;28.30;35.90;;;;;;21256903;27;19927;-71
2022/06/07 09:04:58;;;;;;;;;;;28.70;34.60;;;;;;21255386;27;19934;-67
2022/06/07 09:14:59;;;;;;;;;;;28.60;34.30;;;;;;21252940;27;19927;-67
2022/06/07 09:25:04;;;;;;;;;;;28.50;34.90;;;;;;21222204;27;19928;-58
2022/06/07 09:35:08;;;;;;;;;;;28.80;34.30;;;;;;21244580;27;19992;-68
2022/06/07 09:45:11;;;;;;;;;;;;;;;;;;21249218;27;19976;-70
2022/06/07 09:55:14;;;;;;;;;;;;;;;;;;21217453;27;20371;-64
2022/06/07 10:05:24;;;;;;;;;;;29.80;32.60;;;;;;21210516;27;19949;-64
2022/06/07 10:15:50;;;;;;;;;;;29.40;33.10;;;;;;21210688;27;19984;-72
2022/06/07 10:26:04;;;;;;;;;;;29.10;33.10;;;;;;21021650;28;20335;-60
2022/06/07 10:36:05;;;;;;;;;;;29.30;32.90;;;;;;21038601;28;19967;-64
2022/06/07 10:46:11;;;;;;;;;;;29.70;32.80;;;;;;21070385;28;20386;-68
2022/06/07 10:56:12;;;;;;;;;;;29.60;32.50;;;;;;21119534;27;19935;-61
2022/06/07 11:17:36;;;;;;;;;;;29.70;32.40;;;;;;21264104;27;19923;-65
2022/06/07 11:27:49;;;;;;;;;;;29.80;31.90;;;;;;21084771;28;19931;-64
2022/06/07 11:37:52;;;;;;;;;;;29.70;31.30;;;;;;21083482;28;19986;-70
2022/06/07 11:48:22;;;;;;;;;;;29.70;31.40;;;;;;21082685;28;20426;-65
2022/06/07 11:58:43;;;;;;;;;;;29.90;31.50;;;;;;21237403;27;19981;-62
2022/06/07 12:08:45;;;;;;;;;;;;;;;;;;21257249;27;20294;-71
2022/06/07 12:18:53;;;;;;;;;;;31.00;29.00;;;;;;21262786;27;20011;-71
2022/06/07 12:28:57;;;;;;;;;;;31.00;28.90;;;;;;21259124;27;20287;-68
2022/06/07 12:39:19;;;;;;;;;;;31.10;29.50;;;;;;21257268;27;20507;-68
2022/06/07 12:49:27;;;;;;;;;;;31.10;29.00;;;;;;21255168;27;20310;-71
2022/06/07 12:59:50;;;;;;;;;;;31.60;28.60;;;;;;21255635;27;19927;-72
2022/06/07 13:09:54;;;;;;;;;;;31.70;29.00;;;;;;21253832;27;19932;-68
2022/06/07 13:19:57;;;;;;;;;;;31.80;28.50;;;;;;21252668;27;19946;-71
2022/06/07 13:30:00;;;;;;;;;;;31.90;28.20;;;;;;21252125;27;19927;-69
2022/06/07 13:40:02;;;;;;;;;;;32.00;28.00;;;;;;21250854;27;19927;-70
2022/06/07 14:00:35;;;;;;;;;;;32.10;27.20;;;;;;21250847;27;20019;-65
2022/06/07 14:10:37;;;;;;;;;;;32.10;27.00;;;;;;21250757;27;19924;-69
2022/06/07 14:20:39;;;;;;;;;;;32.30;27.20;;;;;;21263732;27;19927;-71
2022/06/07 14:30:41;;;;;;;;;;;32.20;26.60;;;;;;21248976;27;19968;-71
2022/06/07 14:40:44;;;;;;;;;;;;;;;;;;21247594;28;20038;-71
2022/06/07 14:50:45;;;;;;;;;;;32.40;26.90;;;;;;21247468;28;19923;-72
2022/06/07 15:00:47;;;;;;;;;;;32.40;26.80;;;;;;21247553;28;19996;-71
2022/06/07 15:10:48;;;;;;;;;;;32.40;26.80;;;;;;21246487;28;20401;-69
2022/06/07 15:20:50;;;;;;;;;;;;;;;;;;21245595;28;19924;-71
2022/06/07 15:30:53;;;;;;;;;;;32.30;26.80;;;;;;21246490;28;20060;-71
2022/06/07 15:40:55;;;;;;;;;;;32.40;26.40;;;;;;21258287;27;19923;-72
2022/06/07 15:50:59;;;;;;;;;;;32.30;27.10;;;;;;21261975;27;19923;-69
2022/06/07 16:01:02;;;;;;;;;;;32.10;28.30;;;;;;21259463;27;20355;-71
2022/06/07 16:11:04;;;;;;;;;;;32.20;28.30;;;;;;21257851;27;19924;-67
2022/06/07 16:21:07;;;;;;;;;;;32.20;28.60;;;;;;21256992;27;19923;-70
2022/06/07 16:41:29;;;;;;;;;;;32.30;28.20;;;;;;21256062;27;20375;-66
2022/06/07 16:51:30;;;;;;;;;;;32.20;28.60;;;;;;21251087;27;20327;-67
2022/06/07 17:01:33;;;;;;;;;;;31.70;29.00;;;;;;21254133;27;19976;-63
2022/06/07 17:11:38;;;;;;;;;;;31.10;29.60;;;;;;21252427;27;19981;-62
2022/06/07 17:21:41;;;;;;;;;;;31.10;29.50;;;;;;21251047;27;20339;-68
2022/06/07 17:31:43;;;;;;;;;;;31.30;29.40;;;;;;21251552;27;20405;-64
2022/06/07 17:41:46;;;;;;;;;;;31.50;28.70;;;;;;21251281;27;19958;-70
2022/06/07 17:51:48;;;;;;;;;;;31.50;29.00;;;;;;21252129;27;19923;-69
2022/06/07 18:01:49;;;;;;;;;;;31.60;28.80;;;;;;21251571;27;19927;-69
2022/06/07 18:11:51;;;;;;;;;;;31.60;28.50;;;;;;21249301;27;20442;-68
2022/06/07 18:21:52;;;;;;;;;;;31.60;28.40;;;;;;21249930;27;19924;-68
2022/06/07 18:31:54;;;;;;;;;;;31.40;29.00;;;;;;21247661;27;19934;-69
2022/06/07 18:41:57;;;;;;;;;;;31.30;29.30;;;;;;21249187;28;19923;-66
2022/06/07 18:51:59;;;;;;;;;;;31.10;29.40;;;;;;21229311;28;19924;-68
2022/06/07 19:02:01;;;;;;;;;;;31.00;29.30;;;;;;21247191;28;19993;-70
2022/06/07 19:12:03;;;;;;;;;;;30.80;29.90;;;;;;21249395;27;20286;-67
2022/06/07 19:22:06;;;;;;;;;;;30.50;29.80;;;;;;21262781;27;20363;-68
2022/06/07 19:32:08;;;;;;;;;;;30.40;30.00;;;;;;21262947;27;19976;-66
2022/06/07 19:42:10;;;;;;;;;;;30.10;30.70;;;;;;21262419;27;20030;-69
2022/06/07 19:52:13;;;;;;;;;;;29.90;31.00;;;;;;21265330;27;20374;-67
2022/06/07 20:02:15;;;;;;;;;;;29.60;31.30;;;;;;21260349;27;20458;-69
2022/06/07 20:12:16;;;;;;;;;;;29.40;32.00;;;;;;21257894;27;19947;-68
2022/06/07 20:22:19;;;;;;;;;;;29.20;32.80;;;;;;21238719;27;20056;-69
2022/06/07 20:32:20;;;;;;;;;;;28.90;33.50;;;;;;21259671;27;20370;-69
2022/06/07 20:42:22;;;;;;;;;;;28.80;34.10;;;;;;21255754;27;19972;-67
2022/06/07 20:52:24;;;;;;;;;;;28.60;34.00;;;;;;21249540;27;19947;-67
2022/06/07 21:02:26;;;;;;;;;;;28.40;34.50;;;;;;21253886;27;20358;-66
2022/06/07 21:12:28;;;;;;;;;;;28.20;35.00;;;;;;21251980;27;20022;-67
2022/06/07 21:22:30;;;;;;;;;;;28.00;35.20;;;;;;21233072;27;19927;-68
2022/06/07 21:32:32;;;;;;;;;;;27.80;35.40;;;;;;21251959;27;19970;-66
2022/06/07 21:42:33;;;;;;;;;;;27.70;34.80;;;;;;21252032;27;20223;-68
2022/06/07 21:52:35;;;;;;;;;;;27.60;34.50;;;;;;21250968;27;19923;-67
2022/06/07 22:02:37;;;;;;;;;;;27.50;32.90;;;;;;21250343;27;19924;-66
2022/06/07 22:12:40;;;;;;;;;;;27.40;31.80;;;;;;21250248;27;19934;-68
2022/06/07 22:22:42;;;;;;;;;;;27.30;30.80;;;;;;21249256;27;19923;-66
2022/06/07 22:32:43;;;;;;;;;;;27.20;30.60;;;;;;21248503;27;19924;-67
2022/06/07 22:42:45;;;;;;;;;;;27.00;29.90;;;;;;21249612;28;20286;-67
2022/06/07 22:52:47;;;;;;;;;;;26.90;29.20;;;;;;21262770;27;19923;-67
2022/06/07 23:02:54;;;;;;;;;;;26.80;29.50;;;;;;21264383;27;19924;-67
2022/06/07 23:12:56;;;;;;;;;;;26.70;28.70;;;;;;21261251;27;19930;-67
2022/06/07 23:22:58;;;;;;;;;;;26.60;29.10;;;;;;21263192;27;19962;-67
2022/06/07 23:32:59;;;;;;;;;;;26.50;29.00;;;;;;21262433;27;20048;-66
2022/06/07 23:43:01;;;;;;;;;;;26.40;28.70;;;;;;21261532;27;19923;-68
2022/06/07 23:53:06;;;;;;;;;;;26.30;28.90;;;;;;21260146;27;19977;-66
